| time (UTC) | temp F | wind direction | speed knots | gust knots | rain 1hr in | rain 24hr in | rain mn in | humidity % | barometer mb |
| 20260507074541 | 41 | 0 | 0.0 | 1.7 | 0.03 | 0.11 | 0.11 | 90 | 1016.5 |
| 20260507073053 | 41 | 152 | 0.9 | 3.5 | 0.02 | 0.10 | 0.10 | 90 | 1016.4 |
| 20260507071545 | 41 | 0 | 0.0 | 1.7 | 0.02 | 0.09 | 0.09 | 90 | 1016.3 |
| 20260507070043 | 41 | 60 | 0.0 | 2.6 | 0.03 | 0.08 | 0.08 | 90 | 1016.2 |
| 20260507064542 | 42 | 60 | 0.9 | 5.2 | 0.03 | 0.08 | 0.08 | 90 | 1015.9 |
| 20260507063046 | 42 | 19 | 1.7 | 3.5 | 0.04 | 0.08 | 0.08 | 89 | 1015.8 |
| 20260507061539 | 42 | 336 | 0.9 | 1.7 | 0.03 | 0.07 | 0.07 | 88 | 1015.6 |
| 20260507060047 | 42 | 0 | 0.0 | 1.7 | 0.02 | 0.05 | 0.05 | 87 | 1015.6 |
| 20260507054545 | 42 | 0 | 0.0 | 2.6 | 0.02 | 0.05 | 0.05 | 87 | 1015.4 |
| 20260507053041 | 43 | 277 | 0.0 | 4.3 | 0.02 | 0.04 | 0.04 | 87 | 1015.4 |
| 20260507051543 | 43 | 237 | 0.9 | 7.0 | 0.02 | 0.04 | 0.04 | 87 | 1015.3 |
| 20260507050041 | 44 | 215 | 2.6 | 7.0 | 0.01 | 0.03 | 0.03 | 85 | 1015.2 |
| 20260507044542 | 44 | 225 | 0.9 | 3.5 | 0.01 | 0.03 | 0.03 | 83 | 1015.0 |
| 20260507043045 | 45 | 246 | 0.9 | 2.6 | 0.00 | 0.02 | 0.02 | 81 | 1014.9 |
| 20260507041547 | 45 | 246 | 0.0 | 2.6 | 0.01 | 0.02 | 0.02 | 80 | 1014.9 |
| 20260507040045 | 45 | 220 | 0.0 | 6.1 | 0.01 | 0.02 | 0.02 | 80 | 1014.7 |
| 20260507034545 | 45 | 246 | 0.9 | 6.1 | 0.01 | 0.02 | 0.02 | 80 | 1014.7 |
| 20260507033039 | 45 | 258 | 1.7 | 7.8 | 0.01 | 0.02 | 0.02 | 79 | 1014.5 |
| 20260507031541 | 46 | 254 | 1.7 | 7.0 | 0.00 | 0.01 | 0.01 | 76 | 1014.4 |
| 20260507030046 | 46 | 266 | 2.6 | 7.8 | 0.00 | 0.01 | 0.01 | 75 | 1014.3 |
| 20260507024544 | 46 | 240 | 3.5 | 9.6 | 0.00 | 0.01 | 0.01 | 73 | 1014.3 |
| 20260507023042 | 46 | 204 | 3.5 | 8.7 | 0.00 | 0.01 | 0.01 | 73 | 1014.2 |
| 20260507021540 | 47 | 201 | 3.5 | 10.4 | 0.00 | 0.01 | 0.01 | 73 | 1014.1 |
| 20260507014549 | 47 | 232 | 5.2 | 8.7 | 0.00 | 0.01 | 0.01 | 70 | 1013.8 |
| 20260507013047 | 48 | 242 | 6.1 | 9.6 | 0.00 | 0.01 | 0.01 | 68 | 1013.9 |
| 20260507011542 | 48 | 213 | 5.2 | 10.4 | 0.00 | 0.01 | 0.01 | 68 | 1013.8 |
| 20260507010045 | 48 | 238 | 3.5 | 9.6 | 0.00 | 0.01 | 0.01 | 68 | 1013.8 |
| 20260507004545 | 48 | 228 | 6.1 | 10.4 | 0.00 | 0.01 | 0.01 | 66 | 1013.7 |
| 20260507003043 | 48 | 212 | 6.1 | 12.2 | 0.00 | 0.01 | 0.01 | 66 | 1013.6 |
| 20260507001547 | 48 | 228 | 7.0 | 12.2 | 0.00 | 0.01 | 0.01 | 67 | 1013.6 |
| 20260507000045 | 49 | 234 | 6.1 | 12.2 | 0.00 | 0.01 | 0.01 | 65 | 1013.4 |
| 20260506234550 | 49 | 239 | 6.1 | 9.6 | 0.00 | 0.01 | 0.01 | 65 | 1013.3 |
| 20260506233041 | 49 | 241 | 4.3 | 11.3 | 0.00 | 0.01 | 0.01 | 65 | 1013.2 |
| 20260506231551 | 49 | 242 | 4.3 | 11.3 | 0.00 | 0.01 | 0.01 | 66 | 1013.0 |
| 20260506230055 | 49 | 218 | 5.2 | 11.3 | 0.00 | 0.01 | 0.01 | 66 | 1012.9 |
| 20260506224543 | 49 | 262 | 5.2 | 13.0 | 0.00 | 0.01 | 0.01 | 68 | 1012.8 |
| 20260506223053 | 49 | 223 | 7.0 | 13.0 | 0.00 | 0.01 | 0.01 | 66 | 1012.8 |
| 20260506221540 | 50 | 221 | 7.0 | 13.0 | 0.00 | 0.01 | 0.01 | 67 | 1012.8 |
| 20260506220042 | 50 | 233 | 7.0 | 12.2 | 0.00 | 0.01 | 0.01 | 65 | 1012.7 |
| 20260506214541 | 49 | 227 | 7.8 | 12.2 | 0.00 | 0.01 | 0.01 | 64 | 1012.6 |
| 20260506213101 | 49 | 185 | 3.5 | 10.4 | 0.00 | 0.01 | 0.01 | 63 | 1012.4 |
| 20260506211603 | 49 | 185 | 7.0 | 12.2 | 0.00 | 0.01 | 0.01 | 65 | 1012.3 |
| 20260506210041 | 49 | 238 | 5.2 | 9.6 | 0.00 | 0.01 | 0.01 | 64 | 1012.2 |
| 20260506204554 | 50 | 223 | 2.6 | 8.7 | 0.00 | 0.01 | 0.01 | 65 | 1012.1 |
| 20260506203045 | 50 | 219 | 1.7 | 8.7 | 0.00 | 0.01 | 0.01 | 64 | 1012.0 |
| 20260506201555 | 50 | 167 | 2.6 | 5.2 | 0.00 | 0.01 | 0.01 | 63 | 1011.9 |
| 20260506200044 | 49 | 134 | 4.3 | 7.0 | 0.00 | 0.01 | 0.01 | 64 | 1011.8 |
| 20260506194602 | 50 | 0 | 0.0 | 4.3 | 0.00 | 0.01 | 0.01 | 65 | 1011.7 |
| 20260506193045 | 50 | 0 | 0.9 | 6.1 | 0.00 | 0.01 | 0.01 | 64 | 1011.6 |
| 20260506191548 | 48 | 251 | 0.0 | 6.1 | 0.00 | 0.01 | 0.01 | 67 | 1011.7 |
| 20260506190046 | 48 | 0 | 1.7 | 4.3 | 0.00 | 0.01 | 0.01 | 70 | 1011.7 |
| 20260506184605 | 47 | 0 | 0.9 | 1.7 | 0.00 | 0.01 | 0.01 | 72 | 1011.8 |
| 20260506183104 | 46 | 194 | 0.0 | 2.6 | 0.00 | 0.01 | 0.01 | 73 | 1011.6 |
| 20260506181549 | 46 | 302 | 0.9 | 1.7 | 0.00 | 0.01 | 0.01 | 75 | 1011.6 |
| 20260506180048 | 45 | 355 | 0.9 | 2.6 | 0.00 | 0.01 | 0.01 | 78 | 1011.5 |
| 20260506174544 | 45 | 26 | 0.9 | 2.6 | 0.00 | 0.01 | 0.01 | 78 | 1011.5 |
| 20260506173051 | 44 | 26 | 0.0 | 2.6 | 0.00 | 0.01 | 0.01 | 80 | 1011.5 |
| 20260506171543 | 43 | 26 | 0.0 | 1.7 | 0.00 | 0.01 | 0.01 | 85 | 1011.5 |
| 20260506170104 | 42 | 0 | 0.0 | 2.6 | 0.00 | 0.01 | 0.01 | 85 | 1011.3 |
| 20260506164543 | 42 | 26 | 0.9 | 2.6 | 0.00 | 0.01 | 0.01 | 87 | 1011.3 |
| 20260506163058 | 41 | 9 | 0.9 | 2.6 | 0.00 | 0.01 | 0.01 | 88 | 1011.2 |
| 20260506161548 | 41 | 0 | 0.9 | 2.6 | 0.00 | 0.01 | 0.01 | 89 | 1011.2 |
| 20260506160047 | 40 | 360 | 1.7 | 2.6 | 0.00 | 0.01 | 0.01 | 90 | 1011.1 |
| 20260506154546 | 40 | 349 | 0.9 | 2.6 | 0.00 | 0.01 | 0.01 | 91 | 1011.1 |
| 20260506153044 | 40 | 0 | 0.0 | 1.7 | 0.00 | 0.01 | 0.01 | 91 | 1011.1 |
| 20260506151550 | 39 | 224 | 0.9 | 1.7 | 0.00 | 0.01 | 0.01 | 90 | 1011.1 |
| 20260506150041 | 39 | 0 | 0.0 | 0.9 | 0.00 | 0.01 | 0.01 | 90 | 1011.0 |
| 20260506144553 | 39 | 0 | 0.0 | 0.9 | 0.00 | 0.01 | 0.01 | 89 | 1011.0 |
| 20260506143042 | 39 | 0 | 0.0 | 0.9 | 0.00 | 0.01 | 0.01 | 88 | 1011.0 |
| 20260506141543 | 39 | 224 | 0.0 | 0.9 | 0.00 | 0.01 | 0.01 | 88 | 1011.0 |
| 20260506140045 | 39 | 0 | 0.0 | 0.0 | 0.00 | 0.01 | 0.01 | 87 | 1011.0 |
| 20260506134542 | 40 | 0 | 0.0 | 0.9 | 0.01 | 0.01 | 0.01 | 86 | 1011.1 |
| 20260506133045 | 40 | 0 | 0.0 | 1.7 | 0.01 | 0.01 | 0.01 | 84 | 1011.0 |
| 20260506131538 | 41 | 0 | 0.0 | 0.9 | 0.01 | 0.01 | 0.01 | 82 | 1010.9 |
| 20260506130041 | 42 | 0 | 0.0 | 0.9 | 0.01 | 0.01 | 0.01 | 80 | 1010.9 |
| 20260506124541 | 42 | 0 | 0.0 | 0.9 | 0.00 | 0.00 | 0.00 | 78 | 1010.8 |
| 20260506123049 | 42 | 0 | 0.0 | 0.9 | 0.00 | 0.00 | 0.00 | 76 | 1010.9 |
| 20260506121545 | 42 | 0 | 0.0 | 1.7 | 0.00 | 0.00 | 0.00 | 74 | 1010.7 |
| 20260506120047 | 43 | 0 | 0.0 | 2.6 | 0.00 | 0.00 | 0.00 | 74 | 1010.5 |
| 20260506114544 | 43 | 236 | 3.5 | 7.8 | 0.00 | 0.00 | 0.00 | 73 | 1010.4 |
| 20260506113041 | 43 | 256 | 2.6 | 9.6 | 0.00 | 0.00 | 0.00 | 73 | 1010.3 |
| 20260506111543 | 42 | 240 | 1.7 | 7.8 | 0.00 | 0.00 | 0.00 | 71 | 1010.3 |
| 20260506110041 | 41 | 223 | 0.9 | 3.5 | 0.00 | 0.00 | 0.00 | 72 | 1010.1 |
| 20260506104548 | 40 | 355 | 0.9 | 2.6 | 0.00 | 0.00 | 0.00 | 75 | 1009.9 |
| 20260506103049 | 40 | 355 | 0.0 | 2.6 | 0.00 | 0.00 | 0.00 | 75 | 1009.8 |
| 20260506101542 | 40 | 0 | 0.0 | 2.6 | 0.00 | 0.00 | 0.00 | 75 | 1009.5 |
| 20260506100042 | 40 | 355 | 0.0 | 0.9 | 0.00 | 0.00 | 0.00 | 74 | 1009.3 |
| 20260506094543 | 41 | 0 | 0.0 | 0.9 | 0.00 | 0.00 | 0.00 | 73 | 1009.1 |
| 20260506093047 | 41 | 355 | 0.9 | 2.6 | 0.00 | 0.00 | 0.00 | 72 | 1009.0 |
| 20260506091544 | 41 | 0 | 0.0 | 2.6 | 0.00 | 0.00 | 0.00 | 71 | 1009.0 |
| 20260506090048 | 41 | 355 | 0.9 | 2.6 | 0.00 | 0.00 | 0.00 | 69 | 1008.8 |
| 20260506084600 | 42 | 355 | 0.9 | 3.5 | 0.00 | 0.00 | 0.00 | 67 | 1008.7 |
| 20260506083043 | 42 | 355 | 1.7 | 4.3 | 0.00 | 0.00 | 0.00 | 66 | 1008.6 |
| 20260506081544 | 43 | 355 | 0.9 | 3.5 | 0.00 | 0.00 | 0.00 | 65 | 1008.7 |